createdAt,value
2023-04-30T00:00:39.331Z,71.88
2023-04-30T00:03:07.608Z,72.37
2023-04-30T00:05:35.902Z,72.25
2023-04-30T00:08:04.188Z,71.87
2023-04-30T00:10:32.356Z,71.60
2023-04-30T00:13:01.857Z,71.52
2023-04-30T00:15:30.038Z,71.10
2023-04-30T00:17:58.267Z,71.30
2023-04-30T00:20:26.912Z,70.90
2023-04-30T00:22:55.786Z,70.60
2023-04-30T00:25:24.640Z,71.02
2023-04-30T00:27:53.001Z,71.39
2023-04-30T00:30:22.556Z,71.90
2023-04-30T00:32:50.821Z,71.57
2023-04-30T00:35:19.197Z,71.10
2023-04-30T00:37:48.124Z,71.68
2023-04-30T00:40:16.725Z,72.05
2023-04-30T00:42:45.073Z,71.90
2023-04-30T00:45:13.378Z,72.07
2023-04-30T00:47:43.048Z,72.63
2023-04-30T00:50:15.783Z,72.08
2023-04-30T00:52:44.877Z,72.84
2023-04-30T00:55:14.120Z,72.95
2023-04-30T00:57:42.457Z,72.88
2023-04-30T01:00:14.990Z,72.95
2023-04-30T01:02:45.671Z,72.69
2023-04-30T01:05:13.984Z,72.46
2023-04-30T01:07:45.250Z,72.44
2023-04-30T01:10:15.152Z,72.17
2023-04-30T01:12:54.051Z,72.06
2023-04-30T01:15:30.355Z,71.87
2023-04-30T01:18:07.666Z,72.49
2023-04-30T01:20:40.198Z,72.96
2023-04-30T01:23:34.374Z,73.30
2023-04-30T01:26:14.985Z,73.01
2023-04-30T01:28:47.180Z,72.55
2023-04-30T01:31:16.615Z,72.51
2023-04-30T01:33:44.883Z,72.39
2023-04-30T01:36:34.700Z,72.45
2023-04-30T01:39:16.514Z,72.60
2023-04-30T01:41:56.409Z,72.57
2023-04-30T01:44:44.139Z,72.68
2023-04-30T01:47:26.039Z,72.71
2023-04-30T01:50:06.640Z,72.49
2023-04-30T01:52:51.743Z,72.59
2023-04-30T01:55:25.973Z,72.35
2023-04-30T01:57:59.466Z,72.70
2023-04-30T02:00:31.587Z,72.38
2023-04-30T02:03:00.355Z,72.76
2023-04-30T02:05:28.879Z,72.89
2023-04-30T02:07:57.574Z,73.25
2023-04-30T02:10:29.547Z,73.27
2023-04-30T02:12:57.724Z,73.37
2023-04-30T02:15:26.117Z,73.30
2023-04-30T02:17:55.814Z,73.38
2023-04-30T02:20:24.312Z,73.58
2023-04-30T02:22:52.942Z,73.38
2023-04-30T02:25:21.152Z,73.28
2023-04-30T02:27:50.617Z,73.62
2023-04-30T02:30:20.084Z,74.07
2023-04-30T02:32:49.193Z,74.43
2023-04-30T02:35:19.014Z,74.48
2023-04-30T02:37:47.221Z,74.50
2023-04-30T02:40:15.879Z,74.80
2023-04-30T02:42:44.095Z,75.02
2023-04-30T02:45:12.464Z,74.82
2023-04-30T02:47:40.740Z,75.19
2023-04-30T02:50:10.047Z,75.17
2023-04-30T02:52:39.671Z,75.98
2023-04-30T02:55:09.792Z,76.06
2023-04-30T02:57:38.038Z,76.31
2023-04-30T03:00:08.410Z,76.15
2023-04-30T03:02:38.907Z,75.44
2023-04-30T03:05:08.027Z,75.55
2023-04-30T03:07:36.630Z,75.29
2023-04-30T03:10:09.421Z,75.08
2023-04-30T03:12:37.528Z,74.89
2023-04-30T03:15:10.725Z,75.24
2023-04-30T03:17:38.934Z,74.91
2023-04-30T03:20:08.982Z,74.96
2023-04-30T03:22:37.248Z,75.23
2023-04-30T03:25:09.497Z,75.52
2023-04-30T03:27:37.672Z,75.08
2023-04-30T03:30:07.767Z,75.40
2023-04-30T03:32:36.018Z,75.21
2023-04-30T03:35:04.968Z,75.20
2023-04-30T03:37:33.455Z,74.77
2023-04-30T03:40:01.645Z,74.75
2023-04-30T03:42:31.147Z,74.87
2023-04-30T03:44:59.408Z,74.55
2023-04-30T03:47:27.681Z,74.40
2023-04-30T03:49:56.658Z,74.65
2023-04-30T03:52:26.516Z,74.71
2023-04-30T03:54:55.092Z,74.30
2023-04-30T03:57:23.464Z,74.30
2023-04-30T03:59:53.326Z,74.46
2023-04-30T04:02:22.237Z,74.40
2023-04-30T04:04:53.682Z,74.27
2023-04-30T04:07:22.047Z,74.93
2023-04-30T04:09:50.417Z,74.45
2023-04-30T04:12:18.721Z,74.35
2023-04-30T04:14:46.812Z,74.20
2023-04-30T04:17:16.521Z,74.19
2023-04-30T04:19:45.902Z,74.08
2023-04-30T04:22:14.721Z,74.54
2023-04-30T04:24:45.926Z,74.35
2023-04-30T04:27:17.728Z,74.76
2023-04-30T04:29:46.203Z,74.71
2023-04-30T04:32:16.576Z,74.87
2023-04-30T04:34:45.910Z,75.12
2023-04-30T04:37:15.562Z,75.13
2023-04-30T04:39:45.064Z,75.05
2023-04-30T04:42:13.521Z,75.46
2023-04-30T04:44:42.539Z,75.24
2023-04-30T04:47:12.664Z,75.47
2023-04-30T04:49:42.255Z,75.21
2023-04-30T04:52:11.054Z,75.27
2023-04-30T04:54:39.453Z,75.40
2023-04-30T04:57:07.735Z,76.13
2023-04-30T04:59:35.902Z,75.82
2023-04-30T05:02:04.146Z,75.45
2023-04-30T05:04:32.375Z,75.91
2023-04-30T05:07:02.001Z,75.76
2023-04-30T05:09:30.541Z,75.54
2023-04-30T05:11:58.665Z,75.99
2023-04-30T05:14:28.567Z,76.50
2023-04-30T05:16:56.713Z,76.37
2023-04-30T05:19:25.004Z,76.41
2023-04-30T05:21:53.184Z,75.92
2023-04-30T05:24:22.871Z,75.89
2023-04-30T05:26:51.065Z,75.88
2023-04-30T05:29:19.219Z,75.98
2023-04-30T05:31:47.417Z,75.90
2023-04-30T05:34:15.636Z,76.20
2023-04-30T05:36:44.616Z,76.25
2023-04-30T05:39:12.791Z,76.16
2023-04-30T05:41:42.435Z,76.00
2023-04-30T05:44:13.609Z,76.26
2023-04-30T05:46:41.846Z,75.66
2023-04-30T05:49:10.850Z,76.67
2023-04-30T05:51:38.985Z,76.34
2023-04-30T05:54:07.459Z,75.35
2023-04-30T05:56:35.562Z,74.75
2023-04-30T05:59:05.110Z,74.31
2023-04-30T06:01:33.806Z,74.03
2023-04-30T06:04:03.974Z,73.84
2023-04-30T06:06:32.381Z,74.09
2023-04-30T06:09:00.580Z,74.20
2023-04-30T06:11:28.776Z,74.21
2023-04-30T06:13:58.239Z,74.52
2023-04-30T06:16:30.358Z,75.16
2023-04-30T06:18:58.593Z,74.05
2023-04-30T06:21:29.670Z,73.80
2023-04-30T06:23:57.922Z,73.21
2023-04-30T06:26:29.817Z,73.22
2023-04-30T06:28:58.122Z,73.68
2023-04-30T06:31:27.830Z,73.33
2023-04-30T06:33:56.069Z,72.78
2023-04-30T06:36:24.323Z,72.80
2023-04-30T06:38:54.859Z,71.96
2023-04-30T06:41:27.945Z,71.79
2023-04-30T06:43:56.166Z,72.27
2023-04-30T06:46:24.395Z,71.87
2023-04-30T06:48:53.856Z,71.55
2023-04-30T06:51:22.098Z,72.00
2023-04-30T06:53:50.629Z,71.99
2023-04-30T06:56:18.861Z,71.77
2023-04-30T06:58:47.049Z,71.60
2023-04-30T07:01:15.243Z,71.68
2023-04-30T07:03:43.519Z,71.94
2023-04-30T07:06:13.258Z,71.96
2023-04-30T07:08:43.843Z,71.77
2023-04-30T07:11:12.539Z,71.63
2023-04-30T07:13:40.863Z,71.76
2023-04-30T07:16:10.688Z,71.41
2023-04-30T07:18:39.961Z,70.56
2023-04-30T07:21:08.684Z,69.24
2023-04-30T07:23:38.220Z,68.06
2023-04-30T07:26:06.761Z,67.50
2023-04-30T07:28:34.915Z,67.23
2023-04-30T07:31:03.223Z,66.59
2023-04-30T07:33:34.466Z,66.75
2023-04-30T07:36:02.845Z,66.80
2023-04-30T07:38:31.017Z,66.98
2023-04-30T07:41:01.791Z,67.02
2023-04-30T07:43:31.892Z,66.69
2023-04-30T07:46:00.580Z,66.65
2023-04-30T07:48:28.855Z,65.70
2023-04-30T07:50:57.579Z,64.96
2023-04-30T07:53:25.742Z,65.44
2023-04-30T07:55:53.999Z,64.15
2023-04-30T07:58:23.409Z,63.25
2023-04-30T08:00:51.841Z,60.87
2023-04-30T08:03:20.749Z,59.17
2023-04-30T08:05:49.031Z,56.54
2023-04-30T08:08:17.277Z,53.42
2023-04-30T08:10:45.419Z,51.47
2023-04-30T08:13:13.629Z,51.09
2023-04-30T08:15:43.228Z,49.06
2023-04-30T08:18:11.509Z,49.70
2023-04-30T08:20:40.753Z,47.18
2023-04-30T08:23:09.346Z,47.50
2023-04-30T08:25:38.008Z,46.87
2023-04-30T08:28:07.633Z,47.37
2023-04-30T08:30:35.908Z,46.03
2023-04-30T08:33:05.759Z,44.16
2023-04-30T08:35:34.039Z,45.27
2023-04-30T08:38:02.365Z,44.27
2023-04-30T08:40:49.287Z,44.01
2023-04-30T08:43:20.228Z,44.69
2023-04-30T08:45:50.166Z,44.43
2023-04-30T08:48:22.372Z,43.95
2023-04-30T08:50:50.657Z,44.18
2023-04-30T08:53:21.760Z,43.86
2023-04-30T08:55:50.135Z,44.64
2023-04-30T08:58:18.741Z,45.11
2023-04-30T09:00:47.134Z,44.16
2023-04-30T09:03:15.529Z,44.25
2023-04-30T09:05:45.210Z,43.66
2023-04-30T09:08:20.291Z,43.31
2023-04-30T09:10:48.553Z,44.87
2023-04-30T09:13:17.057Z,43.52
2023-04-30T09:15:46.085Z,44.38
2023-04-30T09:18:17.714Z,43.87
2023-04-30T09:21:00.792Z,43.46
2023-04-30T09:23:30.091Z,44.89
2023-04-30T09:25:58.522Z,46.13
2023-04-30T09:28:28.686Z,45.47
2023-04-30T09:30:59.241Z,45.40
2023-04-30T09:33:27.567Z,44.87
2023-04-30T09:35:57.585Z,45.20
2023-04-30T09:38:31.061Z,44.21
2023-04-30T09:41:00.933Z,44.98
2023-04-30T09:43:29.674Z,44.61
2023-04-30T09:46:00.563Z,42.72
2023-04-30T09:48:29.611Z,42.71
2023-04-30T09:50:59.552Z,43.64
2023-04-30T09:53:29.228Z,45.15
2023-04-30T09:56:03.766Z,45.39
2023-04-30T09:58:37.433Z,44.58
2023-04-30T10:01:07.918Z,44.28
2023-04-30T10:03:37.071Z,45.43
2023-04-30T10:06:09.019Z,44.00
2023-04-30T10:08:43.184Z,43.89
2023-04-30T10:11:16.796Z,43.95
2023-04-30T10:13:52.677Z,43.11
2023-04-30T10:16:31.604Z,43.23
2023-04-30T10:19:08.130Z,42.84
2023-04-30T10:21:43.600Z,43.38
2023-04-30T10:24:14.562Z,42.64
2023-04-30T10:26:43.597Z,43.79
2023-04-30T10:29:12.998Z,44.04
2023-04-30T10:31:44.353Z,40.96
2023-04-30T10:34:24.048Z,42.17
2023-04-30T10:37:01.315Z,40.88
2023-04-30T10:39:30.325Z,42.30
2023-04-30T10:42:06.557Z,43.29
2023-04-30T10:44:36.093Z,42.64
2023-04-30T10:47:05.746Z,42.82
2023-04-30T10:49:34.866Z,42.08
2023-04-30T10:52:06.408Z,41.25
2023-04-30T10:54:38.393Z,40.18
2023-04-30T10:57:14.677Z,40.22
2023-04-30T10:59:53.641Z,41.29
2023-04-30T11:02:22.070Z,42.91
2023-04-30T11:05:18.513Z,41.87
2023-04-30T11:07:53.251Z,41.49
2023-04-30T11:10:24.208Z,41.86
2023-04-30T11:12:54.609Z,41.10
2023-04-30T11:15:26.347Z,41.44
2023-04-30T11:17:59.567Z,41.60
2023-04-30T11:20:30.529Z,41.70
2023-04-30T11:23:21.838Z,41.42
2023-04-30T11:25:57.854Z,40.48
2023-04-30T11:28:28.347Z,41.00
2023-04-30T11:30:59.078Z,40.29
2023-04-30T11:33:29.460Z,39.89
2023-04-30T11:35:59.282Z,38.17
2023-04-30T11:38:31.838Z,40.57
2023-04-30T11:41:00.569Z,41.75
2023-04-30T11:43:31.046Z,37.88
2023-04-30T11:46:08.941Z,38.48
2023-04-30T11:48:39.446Z,40.79
2023-04-30T11:51:16.807Z,39.52
2023-04-30T11:53:47.705Z,38.51
2023-04-30T11:56:19.417Z,40.81
2023-04-30T11:58:49.033Z,39.35
2023-04-30T12:01:18.396Z,38.39
2023-04-30T12:03:48.912Z,37.40
2023-04-30T12:06:24.533Z,40.78
2023-04-30T12:08:57.645Z,40.48
2023-04-30T12:11:27.710Z,40.09
2023-04-30T12:13:57.897Z,39.74
2023-04-30T12:16:26.638Z,39.72
2023-04-30T12:18:58.953Z,40.61
2023-04-30T12:21:29.092Z,40.29
2023-04-30T12:23:59.086Z,39.09
2023-04-30T12:26:37.213Z,38.56
2023-04-30T12:29:06.792Z,39.19
2023-04-30T12:31:35.644Z,39.92
2023-04-30T12:34:09.007Z,39.56
2023-04-30T12:36:37.889Z,38.76
2023-04-30T12:39:13.055Z,39.56
2023-04-30T12:41:43.239Z,38.41
2023-04-30T12:44:22.786Z,38.56
2023-04-30T12:46:53.470Z,38.18
2023-04-30T12:49:29.302Z,37.23
2023-04-30T12:52:04.811Z,37.95
2023-04-30T12:54:34.842Z,38.85
2023-04-30T12:57:06.932Z,37.91
2023-04-30T12:59:38.579Z,36.83
2023-04-30T13:02:11.422Z,37.91
2023-04-30T13:04:40.540Z,35.99
2023-04-30T13:07:09.002Z,37.30
2023-04-30T13:09:39.687Z,37.24
2023-04-30T13:12:08.513Z,37.80
2023-04-30T13:14:36.888Z,38.18
2023-04-30T13:17:07.108Z,38.42
2023-04-30T13:19:35.743Z,38.33
2023-04-30T13:22:03.960Z,36.94
2023-04-30T13:24:32.190Z,37.73
2023-04-30T13:27:02.781Z,35.95
2023-04-30T13:29:32.085Z,36.79
2023-04-30T13:32:02.533Z,37.09
2023-04-30T13:34:30.772Z,36.35
2023-04-30T13:36:59.562Z,36.13
2023-04-30T13:39:27.855Z,35.89
2023-04-30T13:41:56.156Z,36.03
2023-04-30T13:44:26.779Z,35.12
2023-04-30T13:46:56.096Z,35.90
2023-04-30T13:49:25.690Z,35.54
2023-04-30T13:51:54.993Z,35.46
2023-04-30T13:54:25.179Z,36.47
2023-04-30T13:56:55.461Z,36.14
2023-04-30T13:59:23.764Z,35.07
2023-04-30T14:01:53.761Z,36.30
2023-04-30T14:04:29.135Z,35.70
2023-04-30T14:06:58.851Z,35.72
2023-04-30T14:09:27.681Z,36.78
2023-04-30T14:11:59.662Z,35.34
2023-04-30T14:14:32.256Z,35.47
2023-04-30T14:17:02.577Z,34.99
2023-04-30T14:19:32.692Z,34.69
2023-04-30T14:22:01.616Z,37.63
2023-04-30T14:24:30.183Z,36.73
2023-04-30T14:26:59.973Z,36.04
2023-04-30T14:29:28.521Z,36.24
2023-04-30T14:31:57.072Z,34.88
2023-04-30T14:34:27.683Z,36.06
2023-04-30T14:36:59.299Z,35.49
2023-04-30T14:39:28.060Z,35.47
2023-04-30T14:41:56.324Z,36.45
2023-04-30T14:44:25.542Z,35.77
2023-04-30T14:46:54.447Z,35.27
2023-04-30T14:49:22.792Z,35.86
2023-04-30T14:51:52.417Z,35.54
2023-04-30T14:54:20.709Z,35.98
2023-04-30T14:56:49.195Z,36.44
2023-04-30T14:59:17.771Z,35.60
2023-04-30T15:01:46.239Z,35.24
2023-04-30T15:04:14.544Z,36.48
2023-04-30T15:06:43.183Z,36.99
2023-04-30T15:09:13.808Z,35.34
2023-04-30T15:11:42.268Z,36.06
2023-04-30T15:14:11.669Z,35.42
2023-04-30T15:16:40.061Z,34.89
2023-04-30T15:19:08.450Z,35.12
2023-04-30T15:21:37.371Z,34.39
2023-04-30T15:24:06.317Z,34.65
2023-04-30T15:26:36.063Z,34.71
2023-04-30T15:29:04.393Z,35.06
2023-04-30T15:31:32.926Z,34.49
2023-04-30T15:34:01.396Z,34.85
2023-04-30T15:36:29.653Z,34.11
2023-04-30T15:38:57.806Z,33.85
2023-04-30T15:41:25.983Z,34.99
2023-04-30T15:43:55.500Z,35.50
2023-04-30T15:46:23.929Z,35.35
2023-04-30T15:48:52.273Z,35.39
2023-04-30T15:51:20.481Z,35.77
2023-04-30T15:53:48.730Z,35.16
2023-04-30T15:56:18.530Z,35.38
2023-04-30T15:58:46.691Z,34.29
2023-04-30T16:01:16.235Z,35.09
2023-04-30T16:03:44.657Z,34.97
2023-04-30T16:06:13.628Z,35.96
2023-04-30T16:08:42.635Z,36.10
2023-04-30T16:11:11.084Z,35.74
2023-04-30T16:13:39.206Z,36.71
2023-04-30T16:16:08.836Z,36.23
2023-04-30T16:18:38.559Z,35.98
2023-04-30T16:21:09.398Z,35.89
2023-04-30T16:23:37.830Z,36.53
2023-04-30T16:26:06.102Z,36.71
2023-04-30T16:28:34.346Z,37.29
2023-04-30T16:31:03.313Z,37.01
2023-04-30T16:33:31.547Z,37.00
2023-04-30T16:36:01.539Z,37.27
2023-04-30T16:38:30.128Z,37.75
2023-04-30T16:40:58.396Z,37.83
2023-04-30T16:43:26.733Z,37.66
2023-04-30T16:45:54.954Z,38.09
2023-04-30T16:48:23.094Z,39.02
2023-04-30T16:50:51.494Z,39.82
2023-04-30T16:53:21.851Z,39.98
2023-04-30T16:55:51.499Z,39.51
2023-04-30T16:58:19.696Z,39.99
2023-04-30T17:00:49.712Z,40.17
2023-04-30T17:03:18.023Z,40.79
2023-04-30T17:05:46.319Z,40.48
2023-04-30T17:08:15.237Z,40.49
2023-04-30T17:10:45.124Z,40.29
2023-04-30T17:13:14.104Z,40.50
2023-04-30T17:15:43.371Z,41.25
2023-04-30T17:18:13.172Z,41.91
2023-04-30T17:20:41.821Z,41.62
2023-04-30T17:23:13.089Z,42.37
2023-04-30T17:25:41.258Z,42.26
2023-04-30T17:28:10.889Z,42.68
2023-04-30T17:30:39.663Z,42.75
2023-04-30T17:33:08.051Z,43.50
2023-04-30T17:35:36.477Z,43.77
2023-04-30T17:38:05.144Z,44.21
2023-04-30T17:40:34.248Z,44.18
2023-04-30T17:43:02.812Z,44.71
2023-04-30T17:45:32.404Z,44.75
2023-04-30T17:48:00.711Z,45.24
2023-04-30T17:50:29.091Z,45.29
2023-04-30T17:52:58.034Z,45.10
2023-04-30T17:55:27.156Z,45.40
2023-04-30T17:57:55.958Z,45.73
2023-04-30T18:00:24.431Z,46.69
2023-04-30T18:02:54.334Z,47.14
2023-04-30T18:05:25.133Z,47.78
2023-04-30T18:07:53.439Z,47.72
2023-04-30T18:10:24.088Z,47.96
2023-04-30T18:12:53.699Z,48.27
2023-04-30T18:15:23.835Z,48.83
2023-04-30T18:17:53.882Z,49.09
2023-04-30T18:20:22.639Z,49.45
2023-04-30T18:22:52.009Z,49.69
2023-04-30T18:25:20.477Z,50.04
2023-04-30T18:27:48.798Z,49.85
2023-04-30T18:30:17.352Z,50.55
2023-04-30T18:32:45.753Z,51.17
2023-04-30T18:35:15.593Z,51.40
2023-04-30T18:37:44.030Z,51.72
2023-04-30T18:40:13.319Z,51.65
2023-04-30T18:42:41.552Z,51.55
2023-04-30T18:45:11.796Z,51.79
2023-04-30T18:47:40.219Z,52.20
2023-04-30T18:50:13.377Z,52.65
2023-04-30T18:52:43.142Z,52.74
2023-04-30T18:55:13.786Z,52.85
2023-04-30T18:57:43.307Z,53.27
2023-04-30T19:00:14.625Z,53.53
2023-04-30T19:02:44.192Z,53.64
2023-04-30T19:05:12.546Z,54.33
2023-04-30T19:07:42.238Z,54.96
2023-04-30T19:10:11.200Z,54.84
2023-04-30T19:12:39.580Z,54.83
2023-04-30T19:15:11.533Z,55.17
2023-04-30T19:17:40.259Z,55.62
2023-04-30T19:20:10.453Z,55.53
2023-04-30T19:22:38.755Z,56.30
2023-04-30T19:25:10.018Z,57.27
2023-04-30T19:27:38.350Z,57.49
2023-04-30T19:30:10.833Z,57.75
2023-04-30T19:32:39.062Z,57.79
2023-04-30T19:35:08.621Z,57.87
2023-04-30T19:37:37.720Z,58.18
2023-04-30T19:40:11.894Z,57.71
2023-04-30T19:42:40.152Z,57.44
2023-04-30T19:45:10.814Z,57.75
2023-04-30T19:47:39.532Z,57.62
2023-04-30T19:50:09.805Z,57.99
2023-04-30T19:52:38.119Z,58.11
2023-04-30T19:55:06.903Z,58.08
2023-04-30T19:57:36.464Z,57.81
2023-04-30T20:00:06.287Z,58.10
2023-04-30T20:02:35.307Z,58.13
2023-04-30T20:05:05.666Z,58.64
2023-04-30T20:07:35.830Z,58.58
2023-04-30T20:10:04.313Z,58.91
2023-04-30T20:12:32.601Z,58.99
2023-04-30T20:15:02.173Z,59.18
2023-04-30T20:17:30.470Z,59.66
2023-04-30T20:19:58.756Z,59.57
2023-04-30T20:22:27.548Z,59.79
2023-04-30T20:24:56.421Z,60.09
2023-04-30T20:27:25.832Z,60.17
2023-04-30T20:29:54.125Z,60.11
2023-04-30T20:32:23.930Z,60.48
2023-04-30T20:34:52.790Z,60.73
2023-04-30T20:37:20.938Z,60.91
2023-04-30T20:39:49.215Z,61.20
2023-04-30T20:42:17.816Z,61.07
2023-04-30T20:44:47.069Z,61.19
2023-04-30T20:47:15.360Z,61.31
2023-04-30T20:49:44.959Z,61.45
2023-04-30T20:52:13.569Z,61.74
2023-04-30T20:54:42.236Z,61.97
2023-04-30T20:57:10.664Z,61.80
2023-04-30T20:59:39.327Z,61.83
2023-04-30T21:02:07.679Z,61.94
2023-04-30T21:04:35.873Z,62.12
2023-04-30T21:07:05.790Z,62.51
2023-04-30T21:09:35.624Z,62.63
2023-04-30T21:12:05.384Z,62.92
2023-04-30T21:14:34.038Z,62.98
2023-04-30T21:17:02.397Z,63.24
2023-04-30T21:19:31.649Z,63.24
2023-04-30T21:21:59.783Z,63.41
2023-04-30T21:24:31.624Z,63.50
2023-04-30T21:27:00.144Z,63.53
2023-04-30T21:29:28.361Z,63.66
2023-04-30T21:31:56.998Z,63.85
2023-04-30T21:34:25.330Z,63.97
2023-04-30T21:36:53.465Z,63.59
2023-04-30T21:39:21.972Z,63.99
2023-04-30T21:41:51.437Z,64.32
2023-04-30T21:44:20.479Z,64.09
2023-04-30T21:46:48.908Z,64.11
2023-04-30T21:49:18.392Z,64.33
2023-04-30T21:51:46.517Z,64.32
2023-04-30T21:54:14.673Z,64.39
2023-04-30T21:56:42.822Z,64.75
2023-04-30T21:59:12.481Z,64.70
2023-04-30T22:01:40.726Z,64.66
2023-04-30T22:04:08.997Z,64.99
2023-04-30T22:06:37.436Z,64.81
2023-04-30T22:09:06.177Z,64.73
2023-04-30T22:11:34.427Z,64.63
2023-04-30T22:14:04.081Z,64.71
2023-04-30T22:16:33.981Z,64.49
2023-04-30T22:19:02.322Z,64.28
2023-04-30T22:21:30.997Z,64.19
2023-04-30T22:24:00.814Z,64.09
2023-04-30T22:26:29.090Z,63.68
2023-04-30T22:28:59.526Z,63.70
2023-04-30T22:31:27.811Z,63.32
2023-04-30T22:33:57.453Z,63.05
2023-04-30T22:36:28.013Z,62.89
2023-04-30T22:38:59.411Z,62.59
2023-04-30T22:41:30.376Z,62.71
2023-04-30T22:43:58.558Z,62.66
2023-04-30T22:46:27.358Z,62.71
2023-04-30T22:48:58.928Z,63.15
2023-04-30T22:51:29.928Z,63.05
2023-04-30T22:53:58.243Z,63.16
2023-04-30T22:56:26.688Z,63.06
2023-04-30T22:58:54.854Z,62.82
2023-04-30T23:01:23.147Z,62.63
2023-04-30T23:03:51.396Z,62.73
2023-04-30T23:06:21.008Z,62.63
2023-04-30T23:08:49.608Z,62.67
2023-04-30T23:11:17.804Z,62.42
2023-04-30T23:13:45.923Z,62.68
2023-04-30T23:16:14.415Z,62.59
2023-04-30T23:18:42.873Z,62.49
2023-04-30T23:21:11.192Z,62.10
2023-04-30T23:23:40.748Z,62.07
2023-04-30T23:26:08.867Z,61.88
2023-04-30T23:28:37.952Z,61.94
2023-04-30T23:31:06.244Z,62.47
2023-04-30T23:33:34.486Z,62.46
2023-04-30T23:36:04.276Z,62.58
2023-04-30T23:38:32.361Z,62.56
2023-04-30T23:41:03.026Z,62.66
2023-04-30T23:43:32.750Z,62.61
2023-04-30T23:46:01.221Z,62.63
2023-04-30T23:48:30.431Z,62.68
2023-04-30T23:51:02.707Z,62.61
2023-04-30T23:53:32.166Z,62.24
2023-04-30T23:56:01.867Z,62.08
2023-04-30T23:58:31.190Z,61.94
